sensor_id;sensor_type;location;lat;lon;timestamp;temperature;humidity
47773;DHT22;33534;51.028;13.716;2024-03-25T00:01:32;20.20;76.20
47773;DHT22;33534;51.028;13.716;2024-03-25T00:03:58;20.20;76.10
47773;DHT22;33534;51.028;13.716;2024-03-25T00:06:24;20.20;76.30
47773;DHT22;33534;51.028;13.716;2024-03-25T00:08:49;20.20;76.20
47773;DHT22;33534;51.028;13.716;2024-03-25T00:11:15;20.20;76.10
47773;DHT22;33534;51.028;13.716;2024-03-25T00:13:40;20.20;76.10
47773;DHT22;33534;51.028;13.716;2024-03-25T00:16:06;20.20;76.10
47773;DHT22;33534;51.028;13.716;2024-03-25T00:18:32;20.20;76.00
47773;DHT22;33534;51.028;13.716;2024-03-25T00:20:58;20.20;76.00
47773;DHT22;33534;51.028;13.716;2024-03-25T00:23:24;20.20;76.10
47773;DHT22;33534;51.028;13.716;2024-03-25T00:25:50;20.20;76.20
47773;DHT22;33534;51.028;13.716;2024-03-25T00:28:15;20.10;76.20
47773;DHT22;33534;51.028;13.716;2024-03-25T00:30:41;20.20;76.30
47773;DHT22;33534;51.028;13.716;2024-03-25T00:33:06;20.20;76.30
47773;DHT22;33534;51.028;13.716;2024-03-25T00:35:33;20.10;76.40
47773;DHT22;33534;51.028;13.716;2024-03-25T00:37:59;20.10;76.50
47773;DHT22;33534;51.028;13.716;2024-03-25T00:40:25;20.10;76.50
47773;DHT22;33534;51.028;13.716;2024-03-25T00:42:50;20.10;76.50
47773;DHT22;33534;51.028;13.716;2024-03-25T00:45:16;20.20;76.50
47773;DHT22;33534;51.028;13.716;2024-03-25T00:47:42;20.20;76.50
47773;DHT22;33534;51.028;13.716;2024-03-25T00:50:07;20.20;76.50
47773;DHT22;33534;51.028;13.716;2024-03-25T00:52:34;20.20;76.50
47773;DHT22;33534;51.028;13.716;2024-03-25T00:55:00;20.20;76.60
47773;DHT22;33534;51.028;13.716;2024-03-25T00:57:26;20.20;76.60
47773;DHT22;33534;51.028;13.716;2024-03-25T00:59:52;20.20;76.60
47773;DHT22;33534;51.028;13.716;2024-03-25T01:02:17;20.20;76.70
47773;DHT22;33534;51.028;13.716;2024-03-25T01:04:43;20.20;76.60
47773;DHT22;33534;51.028;13.716;2024-03-25T01:07:09;20.20;76.50
47773;DHT22;33534;51.028;13.716;2024-03-25T01:09:34;20.20;76.50
47773;DHT22;33534;51.028;13.716;2024-03-25T01:12:00;20.20;76.50
47773;DHT22;33534;51.028;13.716;2024-03-25T01:14:26;20.20;76.50
47773;DHT22;33534;51.028;13.716;2024-03-25T01:16:52;20.20;76.60
47773;DHT22;33534;51.028;13.716;2024-03-25T01:19:18;20.20;76.50
47773;DHT22;33534;51.028;13.716;2024-03-25T01:21:43;20.20;76.90
47773;DHT22;33534;51.028;13.716;2024-03-25T01:24:09;20.20;77.00
47773;DHT22;33534;51.028;13.716;2024-03-25T01:26:35;20.20;76.90
47773;DHT22;33534;51.028;13.716;2024-03-25T01:29:02;20.20;76.90
47773;DHT22;33534;51.028;13.716;2024-03-25T01:31:27;20.20;76.80
47773;DHT22;33534;51.028;13.716;2024-03-25T01:33:53;20.20;76.70
47773;DHT22;33534;51.028;13.716;2024-03-25T01:36:19;20.20;76.40
47773;DHT22;33534;51.028;13.716;2024-03-25T01:38:45;20.20;76.30
47773;DHT22;33534;51.028;13.716;2024-03-25T01:41:12;20.30;76.40
47773;DHT22;33534;51.028;13.716;2024-03-25T01:43:38;20.20;76.50
47773;DHT22;33534;51.028;13.716;2024-03-25T01:46:04;20.20;76.40
47773;DHT22;33534;51.028;13.716;2024-03-25T01:48:31;20.20;76.40
47773;DHT22;33534;51.028;13.716;2024-03-25T01:50:57;20.20;76.40
47773;DHT22;33534;51.028;13.716;2024-03-25T07:52:25;16.90;48.80
47773;DHT22;33534;51.028;13.716;2024-03-25T07:54:50;16.80;48.80
47773;DHT22;33534;51.028;13.716;2024-03-25T07:57:17;16.30;49.50
47773;DHT22;33534;51.028;13.716;2024-03-25T07:59:43;16.00;50.30
47773;DHT22;33534;51.028;13.716;2024-03-25T08:02:08;15.80;50.30
47773;DHT22;33534;51.028;13.716;2024-03-25T08:04:34;15.60;50.20
47773;DHT22;33534;51.028;13.716;2024-03-25T08:06:59;15.30;49.70
47773;DHT22;33534;51.028;13.716;2024-03-25T08:09:25;15.20;51.20
47773;DHT22;33534;51.028;13.716;2024-03-25T08:11:51;15.30;53.00
47773;DHT22;33534;51.028;13.716;2024-03-25T08:14:16;15.60;57.40
47773;DHT22;33534;51.028;13.716;2024-03-25T08:16:42;16.00;60.70
47773;DHT22;33534;51.028;13.716;2024-03-25T08:19:07;16.30;63.00
47773;DHT22;33534;51.028;13.716;2024-03-25T08:21:33;16.60;64.00
47773;DHT22;33534;51.028;13.716;2024-03-25T08:23:59;16.80;64.50
47773;DHT22;33534;51.028;13.716;2024-03-25T08:26:24;17.00;64.90
47773;DHT22;33534;51.028;13.716;2024-03-25T08:28:50;17.20;65.20
47773;DHT22;33534;51.028;13.716;2024-03-25T08:31:15;17.40;65.50
47773;DHT22;33534;51.028;13.716;2024-03-25T08:33:41;17.50;65.70
47773;DHT22;33534;51.028;13.716;2024-03-25T08:36:07;17.70;66.00
47773;DHT22;33534;51.028;13.716;2024-03-25T08:38:33;17.90;66.10
47773;DHT22;33534;51.028;13.716;2024-03-25T08:40:58;18.00;66.30
47773;DHT22;33534;51.028;13.716;2024-03-25T08:43:24;18.00;66.20
47773;DHT22;33534;51.028;13.716;2024-03-25T08:45:50;18.10;66.40
47773;DHT22;33534;51.028;13.716;2024-03-25T08:48:15;18.30;66.30
47773;DHT22;33534;51.028;13.716;2024-03-25T08:50:41;18.40;66.20
47773;DHT22;33534;51.028;13.716;2024-03-25T08:53:07;18.50;66.20
47773;DHT22;33534;51.028;13.716;2024-03-25T08:55:33;18.50;66.00
47773;DHT22;33534;51.028;13.716;2024-03-25T08:57:59;18.60;66.00
47773;DHT22;33534;51.028;13.716;2024-03-25T09:00:26;18.60;65.90
47773;DHT22;33534;51.028;13.716;2024-03-25T09:02:53;18.70;65.90
47773;DHT22;33534;51.028;13.716;2024-03-25T09:05:18;18.80;65.90
47773;DHT22;33534;51.028;13.716;2024-03-25T09:07:44;18.90;65.90
47773;DHT22;33534;51.028;13.716;2024-03-25T09:10:11;18.90;65.90
47773;DHT22;33534;51.028;13.716;2024-03-25T09:12:55;18.90;65.90
47773;DHT22;33534;51.028;13.716;2024-03-25T09:15:20;19.00;65.90
47773;DHT22;33534;51.028;13.716;2024-03-25T09:17:46;19.00;65.80
47773;DHT22;33534;51.028;13.716;2024-03-25T09:20:11;19.10;65.80
47773;DHT22;33534;51.028;13.716;2024-03-25T09:22:45;19.10;65.80
47773;DHT22;33534;51.028;13.716;2024-03-25T09:25:12;19.20;65.80
47773;DHT22;33534;51.028;13.716;2024-03-25T09:27:39;19.20;65.90
47773;DHT22;33534;51.028;13.716;2024-03-25T09:30:05;19.20;66.10
47773;DHT22;33534;51.028;13.716;2024-03-25T09:32:33;19.30;66.10
47773;DHT22;33534;51.028;13.716;2024-03-25T09:34:58;19.30;66.10
47773;DHT22;33534;51.028;13.716;2024-03-25T09:37:24;19.30;66.10
47773;DHT22;33534;51.028;13.716;2024-03-25T09:39:50;19.30;66.10
47773;DHT22;33534;51.028;13.716;2024-03-25T09:42:25;19.30;66.10
47773;DHT22;33534;51.028;13.716;2024-03-25T09:44:54;19.30;66.20
47773;DHT22;33534;51.028;13.716;2024-03-25T09:47:21;19.30;66.20
47773;DHT22;33534;51.028;13.716;2024-03-25T09:49:48;19.40;66.20
47773;DHT22;33534;51.028;13.716;2024-03-25T09:52:14;19.40;66.20
47773;DHT22;33534;51.028;13.716;2024-03-25T09:54:40;19.30;66.30
47773;DHT22;33534;51.028;13.716;2024-03-25T09:57:06;19.40;66.30
47773;DHT22;33534;51.028;13.716;2024-03-25T09:59:33;19.40;66.30
47773;DHT22;33534;51.028;13.716;2024-03-25T10:01:59;19.40;66.30
47773;DHT22;33534;51.028;13.716;2024-03-25T10:04:26;19.40;66.40
47773;DHT22;33534;51.028;13.716;2024-03-25T10:06:52;19.40;66.40
47773;DHT22;33534;51.028;13.716;2024-03-25T10:09:20;19.40;66.40
47773;DHT22;33534;51.028;13.716;2024-03-25T10:11:49;19.40;66.50
47773;DHT22;33534;51.028;13.716;2024-03-25T10:14:18;19.40;66.60
47773;DHT22;33534;51.028;13.716;2024-03-25T10:16:48;19.40;66.60
47773;DHT22;33534;51.028;13.716;2024-03-25T10:19:14;19.40;66.60
47773;DHT22;33534;51.028;13.716;2024-03-25T10:21:40;19.40;66.70
47773;DHT22;33534;51.028;13.716;2024-03-25T10:24:06;19.30;66.70
47773;DHT22;33534;51.028;13.716;2024-03-25T10:26:32;19.40;66.80
47773;DHT22;33534;51.028;13.716;2024-03-25T10:29:02;19.40;66.80
47773;DHT22;33534;51.028;13.716;2024-03-25T10:31:29;19.40;66.80
47773;DHT22;33534;51.028;13.716;2024-03-25T10:33:54;19.40;66.90
47773;DHT22;33534;51.028;13.716;2024-03-25T10:36:21;19.30;67.00
47773;DHT22;33534;51.028;13.716;2024-03-25T10:38:56;19.40;67.00
47773;DHT22;33534;51.028;13.716;2024-03-25T10:41:23;19.30;67.00
47773;DHT22;33534;51.028;13.716;2024-03-25T10:43:52;19.40;67.10
47773;DHT22;33534;51.028;13.716;2024-03-25T10:46:20;19.30;67.20
47773;DHT22;33534;51.028;13.716;2024-03-25T10:48:57;19.40;67.20
47773;DHT22;33534;51.028;13.716;2024-03-25T10:51:25;19.30;67.20
47773;DHT22;33534;51.028;13.716;2024-03-25T10:53:52;19.30;67.30
47773;DHT22;33534;51.028;13.716;2024-03-25T10:56:20;19.30;67.30
47773;DHT22;33534;51.028;13.716;2024-03-25T10:58:50;19.30;67.30
47773;DHT22;33534;51.028;13.716;2024-03-25T11:01:17;19.30;67.40
47773;DHT22;33534;51.028;13.716;2024-03-25T11:03:47;19.30;67.50
47773;DHT22;33534;51.028;13.716;2024-03-25T11:06:14;19.30;67.50
47773;DHT22;33534;51.028;13.716;2024-03-25T11:08:40;19.30;67.50
47773;DHT22;33534;51.028;13.716;2024-03-25T11:11:07;19.30;67.60
47773;DHT22;33534;51.028;13.716;2024-03-25T11:13:32;19.30;67.60
47773;DHT22;33534;51.028;13.716;2024-03-25T11:15:58;19.30;67.60
47773;DHT22;33534;51.028;13.716;2024-03-25T11:18:25;19.30;67.70
47773;DHT22;33534;51.028;13.716;2024-03-25T11:21:04;19.30;67.70
47773;DHT22;33534;51.028;13.716;2024-03-25T11:23:41;19.30;67.80
47773;DHT22;33534;51.028;13.716;2024-03-25T11:26:21;19.30;67.80
47773;DHT22;33534;51.028;13.716;2024-03-25T11:28:48;19.30;67.80
47773;DHT22;33534;51.028;13.716;2024-03-25T11:31:15;19.30;67.90
47773;DHT22;33534;51.028;13.716;2024-03-25T11:33:41;19.20;67.90
47773;DHT22;33534;51.028;13.716;2024-03-25T11:36:07;19.20;67.90
47773;DHT22;33534;51.028;13.716;2024-03-25T11:38:33;19.30;68.00
47773;DHT22;33534;51.028;13.716;2024-03-25T11:41:00;19.20;68.00
47773;DHT22;33534;51.028;13.716;2024-03-25T11:43:25;19.20;68.00
47773;DHT22;33534;51.028;13.716;2024-03-25T11:45:51;19.30;68.00
47773;DHT22;33534;51.028;13.716;2024-03-25T11:48:19;19.20;68.10
47773;DHT22;33534;51.028;13.716;2024-03-25T11:50:47;19.30;68.10
47773;DHT22;33534;51.028;13.716;2024-03-25T11:53:13;19.20;68.20
47773;DHT22;33534;51.028;13.716;2024-03-25T11:55:41;19.20;68.20
47773;DHT22;33534;51.028;13.716;2024-03-25T11:58:07;19.20;68.20
47773;DHT22;33534;51.028;13.716;2024-03-25T12:00:33;19.30;68.20
47773;DHT22;33534;51.028;13.716;2024-03-25T12:02:59;19.30;68.20
47773;DHT22;33534;51.028;13.716;2024-03-25T12:05:25;19.30;68.20
47773;DHT22;33534;51.028;13.716;2024-03-25T12:07:51;19.30;68.20
47773;DHT22;33534;51.028;13.716;2024-03-25T12:10:17;19.30;68.20
47773;DHT22;33534;51.028;13.716;2024-03-25T12:13:01;19.30;68.20
47773;DHT22;33534;51.028;13.716;2024-03-25T12:15:27;19.30;68.20
47773;DHT22;33534;51.028;13.716;2024-03-25T12:17:53;19.30;68.20
47773;DHT22;33534;51.028;13.716;2024-03-25T12:20:19;19.30;68.20
47773;DHT22;33534;51.028;13.716;2024-03-25T12:22:45;19.30;68.20
47773;DHT22;33534;51.028;13.716;2024-03-25T12:25:11;19.30;68.20
47773;DHT22;33534;51.028;13.716;2024-03-25T12:27:38;19.30;68.20
47773;DHT22;33534;51.028;13.716;2024-03-25T12:30:08;19.30;68.20
47773;DHT22;33534;51.028;13.716;2024-03-25T12:32:44;19.30;68.30
47773;DHT22;33534;51.028;13.716;2024-03-25T12:35:14;19.30;68.30
47773;DHT22;33534;51.028;13.716;2024-03-25T12:37:42;19.30;68.30
47773;DHT22;33534;51.028;13.716;2024-03-25T12:40:14;19.30;68.30
47773;DHT22;33534;51.028;13.716;2024-03-25T12:42:52;19.30;68.30
47773;DHT22;33534;51.028;13.716;2024-03-25T12:45:18;19.30;68.30
47773;DHT22;33534;51.028;13.716;2024-03-25T12:47:44;19.30;68.30
47773;DHT22;33534;51.028;13.716;2024-03-25T12:50:09;19.30;68.40
47773;DHT22;33534;51.028;13.716;2024-03-25T12:52:35;19.30;68.40
47773;DHT22;33534;51.028;13.716;2024-03-25T12:55:01;19.30;68.40
47773;DHT22;33534;51.028;13.716;2024-03-25T12:57:29;19.40;68.50
47773;DHT22;33534;51.028;13.716;2024-03-25T12:59:54;19.30;68.40
47773;DHT22;33534;51.028;13.716;2024-03-25T13:02:20;19.30;68.50
47773;DHT22;33534;51.028;13.716;2024-03-25T13:04:46;19.30;68.50
47773;DHT22;33534;51.028;13.716;2024-03-25T13:07:12;19.30;68.50
47773;DHT22;33534;51.028;13.716;2024-03-25T13:09:37;19.30;68.50
47773;DHT22;33534;51.028;13.716;2024-03-25T13:12:03;19.30;68.60
47773;DHT22;33534;51.028;13.716;2024-03-25T13:14:32;19.30;68.60
47773;DHT22;33534;51.028;13.716;2024-03-25T13:16:57;19.30;68.50
47773;DHT22;33534;51.028;13.716;2024-03-25T13:19:23;19.30;68.60
47773;DHT22;33534;51.028;13.716;2024-03-25T13:21:48;19.20;68.60
47773;DHT22;33534;51.028;13.716;2024-03-25T13:24:15;19.20;68.70
47773;DHT22;33534;51.028;13.716;2024-03-25T13:26:40;19.20;68.70
47773;DHT22;33534;51.028;13.716;2024-03-25T13:29:06;19.20;68.70
47773;DHT22;33534;51.028;13.716;2024-03-25T13:31:33;19.20;68.70
47773;DHT22;33534;51.028;13.716;2024-03-25T13:33:59;19.20;68.80
47773;DHT22;33534;51.028;13.716;2024-03-25T13:36:24;19.20;68.80
47773;DHT22;33534;51.028;13.716;2024-03-25T13:38:51;19.20;68.80
47773;DHT22;33534;51.028;13.716;2024-03-25T13:41:17;19.20;68.80
47773;DHT22;33534;51.028;13.716;2024-03-25T13:43:47;19.20;68.90
47773;DHT22;33534;51.028;13.716;2024-03-25T13:46:12;19.30;68.80
47773;DHT22;33534;51.028;13.716;2024-03-25T13:48:38;19.20;68.90
47773;DHT22;33534;51.028;13.716;2024-03-25T13:51:04;19.30;68.90
47773;DHT22;33534;51.028;13.716;2024-03-25T13:53:30;19.20;68.90
47773;DHT22;33534;51.028;13.716;2024-03-25T13:55:55;19.30;68.90
47773;DHT22;33534;51.028;13.716;2024-03-25T13:58:21;19.30;68.90
47773;DHT22;33534;51.028;13.716;2024-03-25T14:00:46;19.30;68.90
47773;DHT22;33534;51.028;13.716;2024-03-25T14:03:12;19.30;68.80
47773;DHT22;33534;51.028;13.716;2024-03-25T14:05:38;19.30;68.80
47773;DHT22;33534;51.028;13.716;2024-03-25T14:08:03;19.30;68.80
47773;DHT22;33534;51.028;13.716;2024-03-25T14:10:29;19.30;68.80
47773;DHT22;33534;51.028;13.716;2024-03-25T14:12:55;19.30;68.80
47773;DHT22;33534;51.028;13.716;2024-03-25T14:15:21;19.30;68.80
47773;DHT22;33534;51.028;13.716;2024-03-25T14:17:46;19.30;68.80
47773;DHT22;33534;51.028;13.716;2024-03-25T14:20:12;19.30;68.80
47773;DHT22;33534;51.028;13.716;2024-03-25T14:22:38;19.30;68.80
47773;DHT22;33534;51.028;13.716;2024-03-25T14:25:04;19.30;68.80
47773;DHT22;33534;51.028;13.716;2024-03-25T14:27:30;19.30;68.80
47773;DHT22;33534;51.028;13.716;2024-03-25T14:29:55;19.30;68.80
47773;DHT22;33534;51.028;13.716;2024-03-25T14:32:22;19.30;68.90
47773;DHT22;33534;51.028;13.716;2024-03-25T14:34:48;19.30;69.00
47773;DHT22;33534;51.028;13.716;2024-03-25T14:37:14;19.30;69.20
47773;DHT22;33534;51.028;13.716;2024-03-25T14:39:40;19.30;69.20
47773;DHT22;33534;51.028;13.716;2024-03-25T14:42:07;19.30;69.10
47773;DHT22;33534;51.028;13.716;2024-03-25T14:44:33;19.30;69.20
47773;DHT22;33534;51.028;13.716;2024-03-25T14:46:58;19.30;69.10
47773;DHT22;33534;51.028;13.716;2024-03-25T14:49:24;19.30;69.10
47773;DHT22;33534;51.028;13.716;2024-03-25T14:51:50;19.30;69.20
47773;DHT22;33534;51.028;13.716;2024-03-25T14:54:18;19.30;69.20
47773;DHT22;33534;51.028;13.716;2024-03-25T14:56:47;19.30;69.30
47773;DHT22;33534;51.028;13.716;2024-03-25T14:59:12;19.30;69.40
47773;DHT22;33534;51.028;13.716;2024-03-25T15:01:38;19.30;69.40
47773;DHT22;33534;51.028;13.716;2024-03-25T15:04:04;19.30;69.60
47773;DHT22;33534;51.028;13.716;2024-03-25T15:06:30;19.30;69.80
47773;DHT22;33534;51.028;13.716;2024-03-25T15:08:57;19.30;70.00
47773;DHT22;33534;51.028;13.716;2024-03-25T15:11:23;19.30;69.90
47773;DHT22;33534;51.028;13.716;2024-03-25T15:13:50;19.30;69.80
47773;DHT22;33534;51.028;13.716;2024-03-25T15:16:16;19.30;69.70
47773;DHT22;33534;51.028;13.716;2024-03-25T15:18:42;19.30;69.60
47773;DHT22;33534;51.028;13.716;2024-03-25T15:21:07;19.40;69.50
47773;DHT22;33534;51.028;13.716;2024-03-25T15:23:33;19.30;69.50
47773;DHT22;33534;51.028;13.716;2024-03-25T15:25:58;19.40;69.50
47773;DHT22;33534;51.028;13.716;2024-03-25T15:28:24;19.30;69.50
47773;DHT22;33534;51.028;13.716;2024-03-25T15:30:52;19.40;69.50
47773;DHT22;33534;51.028;13.716;2024-03-25T15:33:18;19.40;69.50
47773;DHT22;33534;51.028;13.716;2024-03-25T15:35:44;19.40;69.60
47773;DHT22;33534;51.028;13.716;2024-03-25T15:38:09;19.40;69.70
47773;DHT22;33534;51.028;13.716;2024-03-25T15:40:36;19.40;69.70
47773;DHT22;33534;51.028;13.716;2024-03-25T15:43:02;19.40;69.30
47773;DHT22;33534;51.028;13.716;2024-03-25T15:45:28;19.30;68.90
47773;DHT22;33534;51.028;13.716;2024-03-25T15:47:56;19.30;69.10
47773;DHT22;33534;51.028;13.716;2024-03-25T15:50:22;19.40;69.20
47773;DHT22;33534;51.028;13.716;2024-03-25T15:52:48;19.30;69.10
47773;DHT22;33534;51.028;13.716;2024-03-25T15:55:14;19.40;69.10
47773;DHT22;33534;51.028;13.716;2024-03-25T15:57:40;19.40;69.10
47773;DHT22;33534;51.028;13.716;2024-03-25T16:00:07;19.40;69.10
47773;DHT22;33534;51.028;13.716;2024-03-25T16:02:38;19.40;69.00
47773;DHT22;33534;51.028;13.716;2024-03-25T16:05:04;19.40;69.00
47773;DHT22;33534;51.028;13.716;2024-03-25T16:07:30;19.40;69.00
47773;DHT22;33534;51.028;13.716;2024-03-25T16:09:56;19.40;69.10
47773;DHT22;33534;51.028;13.716;2024-03-25T16:12:23;19.40;69.20
47773;DHT22;33534;51.028;13.716;2024-03-25T16:14:48;19.40;69.20
47773;DHT22;33534;51.028;13.716;2024-03-25T16:17:14;19.40;69.10
47773;DHT22;33534;51.028;13.716;2024-03-25T16:19:39;19.40;69.10
47773;DHT22;33534;51.028;13.716;2024-03-25T16:22:05;19.40;69.10
47773;DHT22;33534;51.028;13.716;2024-03-25T16:24:31;19.40;69.10
47773;DHT22;33534;51.028;13.716;2024-03-25T16:26:57;19.50;69.10
47773;DHT22;33534;51.028;13.716;2024-03-25T16:29:23;19.50;69.40
47773;DHT22;33534;51.028;13.716;2024-03-25T16:31:49;19.50;69.70
47773;DHT22;33534;51.028;13.716;2024-03-25T16:34:14;19.50;69.80
47773;DHT22;33534;51.028;13.716;2024-03-25T16:36:40;19.50;69.80
47773;DHT22;33534;51.028;13.716;2024-03-25T16:39:05;19.50;69.90
47773;DHT22;33534;51.028;13.716;2024-03-25T16:41:31;19.50;70.10
47773;DHT22;33534;51.028;13.716;2024-03-25T16:43:57;19.60;70.00
47773;DHT22;33534;51.028;13.716;2024-03-25T16:46:23;19.50;70.00
47773;DHT22;33534;51.028;13.716;2024-03-25T16:48:49;19.60;70.20
47773;DHT22;33534;51.028;13.716;2024-03-25T16:51:14;19.60;70.70
47773;DHT22;33534;51.028;13.716;2024-03-25T16:53:40;19.60;70.90
47773;DHT22;33534;51.028;13.716;2024-03-25T16:56:06;19.60;71.20
47773;DHT22;33534;51.028;13.716;2024-03-25T16:58:33;19.60;71.60
47773;DHT22;33534;51.028;13.716;2024-03-25T17:00:58;19.60;71.70
47773;DHT22;33534;51.028;13.716;2024-03-25T17:03:24;19.70;71.90
47773;DHT22;33534;51.028;13.716;2024-03-25T17:05:50;19.70;72.00
47773;DHT22;33534;51.028;13.716;2024-03-25T17:08:16;19.70;72.20
47773;DHT22;33534;51.028;13.716;2024-03-25T17:10:42;19.70;72.00
47773;DHT22;33534;51.028;13.716;2024-03-25T17:13:08;19.70;72.20
47773;DHT22;33534;51.028;13.716;2024-03-25T17:15:33;19.70;72.30
47773;DHT22;33534;51.028;13.716;2024-03-25T17:18:11;19.70;72.60
47773;DHT22;33534;51.028;13.716;2024-03-25T17:20:37;19.80;72.70
47773;DHT22;33534;51.028;13.716;2024-03-25T17:23:03;19.70;72.80
47773;DHT22;33534;51.028;13.716;2024-03-25T17:25:29;19.80;72.50
47773;DHT22;33534;51.028;13.716;2024-03-25T17:27:59;19.70;72.50
47773;DHT22;33534;51.028;13.716;2024-03-25T17:30:25;19.80;72.30
47773;DHT22;33534;51.028;13.716;2024-03-25T17:32:50;19.70;72.00
47773;DHT22;33534;51.028;13.716;2024-03-25T17:35:16;19.80;71.80
47773;DHT22;33534;51.028;13.716;2024-03-25T17:37:41;19.70;71.70
47773;DHT22;33534;51.028;13.716;2024-03-25T17:40:08;19.80;71.90
47773;DHT22;33534;51.028;13.716;2024-03-25T17:42:38;19.80;72.20
47773;DHT22;33534;51.028;13.716;2024-03-25T17:45:04;19.80;72.30
47773;DHT22;33534;51.028;13.716;2024-03-25T17:47:30;19.80;72.50
47773;DHT22;33534;51.028;13.716;2024-03-25T17:49:55;19.80;72.60
47773;DHT22;33534;51.028;13.716;2024-03-25T17:52:21;19.70;72.30
47773;DHT22;33534;51.028;13.716;2024-03-25T17:54:47;19.80;72.30
47773;DHT22;33534;51.028;13.716;2024-03-25T17:57:13;19.80;72.40
47773;DHT22;33534;51.028;13.716;2024-03-25T17:59:41;19.80;72.40
47773;DHT22;33534;51.028;13.716;2024-03-25T18:02:07;19.80;72.50
47773;DHT22;33534;51.028;13.716;2024-03-25T18:04:33;19.90;72.60
47773;DHT22;33534;51.028;13.716;2024-03-25T18:06:58;19.80;72.60
47773;DHT22;33534;51.028;13.716;2024-03-25T18:09:24;19.80;72.60
47773;DHT22;33534;51.028;13.716;2024-03-25T18:11:49;19.90;72.70
47773;DHT22;33534;51.028;13.716;2024-03-25T18:14:15;19.80;72.70
47773;DHT22;33534;51.028;13.716;2024-03-25T18:16:40;19.90;72.60
47773;DHT22;33534;51.028;13.716;2024-03-25T18:19:06;19.80;72.50
47773;DHT22;33534;51.028;13.716;2024-03-25T18:21:32;19.90;72.60
47773;DHT22;33534;51.028;13.716;2024-03-25T18:23:59;19.30;51.40
47773;DHT22;33534;51.028;13.716;2024-03-25T18:26:24;18.60;48.50
47773;DHT22;33534;51.028;13.716;2024-03-25T18:28:50;18.00;48.30
47773;DHT22;33534;51.028;13.716;2024-03-25T18:31:15;17.30;48.80
47773;DHT22;33534;51.028;13.716;2024-03-25T18:33:41;17.10;46.60
47773;DHT22;33534;51.028;13.716;2024-03-25T20:59:55;19.70;69.10
47773;DHT22;33534;51.028;13.716;2024-03-25T21:02:22;19.70;69.40
47773;DHT22;33534;51.028;13.716;2024-03-25T21:04:48;19.70;69.60
47773;DHT22;33534;51.028;13.716;2024-03-25T21:07:13;19.70;69.70
47773;DHT22;33534;51.028;13.716;2024-03-25T21:09:39;19.70;69.90
47773;DHT22;33534;51.028;13.716;2024-03-25T21:12:05;19.70;70.00
47773;DHT22;33534;51.028;13.716;2024-03-25T21:14:30;19.70;70.30
47773;DHT22;33534;51.028;13.716;2024-03-25T21:16:56;19.70;70.40
47773;DHT22;33534;51.028;13.716;2024-03-25T21:19:21;19.80;70.50
47773;DHT22;33534;51.028;13.716;2024-03-25T21:21:47;19.70;70.60
47773;DHT22;33534;51.028;13.716;2024-03-25T21:24:13;19.80;70.60
47773;DHT22;33534;51.028;13.716;2024-03-25T21:26:38;19.70;70.70
47773;DHT22;33534;51.028;13.716;2024-03-25T21:29:04;19.80;70.70
47773;DHT22;33534;51.028;13.716;2024-03-25T21:31:29;19.80;70.80
47773;DHT22;33534;51.028;13.716;2024-03-25T21:33:55;19.80;71.10
47773;DHT22;33534;51.028;13.716;2024-03-25T21:36:20;19.80;71.40
47773;DHT22;33534;51.028;13.716;2024-03-25T21:38:46;19.80;71.50
47773;DHT22;33534;51.028;13.716;2024-03-25T21:41:12;19.80;71.60
47773;DHT22;33534;51.028;13.716;2024-03-25T21:43:39;19.80;71.50
47773;DHT22;33534;51.028;13.716;2024-03-25T21:46:05;19.80;71.40
47773;DHT22;33534;51.028;13.716;2024-03-25T21:48:30;19.80;71.40
47773;DHT22;33534;51.028;13.716;2024-03-25T21:50:57;19.80;71.40
47773;DHT22;33534;51.028;13.716;2024-03-25T21:53:24;19.80;71.30
47773;DHT22;33534;51.028;13.716;2024-03-25T21:55:49;19.90;71.20
47773;DHT22;33534;51.028;13.716;2024-03-25T21:58:15;19.80;71.20
47773;DHT22;33534;51.028;13.716;2024-03-25T22:00:41;19.90;71.10
47773;DHT22;33534;51.028;13.716;2024-03-25T22:03:07;19.80;71.20
47773;DHT22;33534;51.028;13.716;2024-03-25T22:05:33;19.80;71.00
47773;DHT22;33534;51.028;13.716;2024-03-25T22:07:58;19.90;71.00
47773;DHT22;33534;51.028;13.716;2024-03-25T22:10:24;19.80;70.90
47773;DHT22;33534;51.028;13.716;2024-03-25T22:12:51;19.90;70.90
47773;DHT22;33534;51.028;13.716;2024-03-25T22:15:16;19.80;70.80
47773;DHT22;33534;51.028;13.716;2024-03-25T22:17:43;19.80;70.80
47773;DHT22;33534;51.028;13.716;2024-03-25T22:20:08;19.80;70.80
47773;DHT22;33534;51.028;13.716;2024-03-25T22:22:34;19.80;70.80
47773;DHT22;33534;51.028;13.716;2024-03-25T22:25:00;19.90;70.70
47773;DHT22;33534;51.028;13.716;2024-03-25T22:27:25;19.80;70.60
47773;DHT22;33534;51.028;13.716;2024-03-25T22:29:51;19.80;70.60
47773;DHT22;33534;51.028;13.716;2024-03-25T22:32:17;19.80;70.60
47773;DHT22;33534;51.028;13.716;2024-03-25T22:34:42;19.90;70.50
47773;DHT22;33534;51.028;13.716;2024-03-25T22:37:08;19.80;70.60
47773;DHT22;33534;51.028;13.716;2024-03-25T22:39:34;19.80;70.50
47773;DHT22;33534;51.028;13.716;2024-03-25T22:42:01;19.90;70.50
47773;DHT22;33534;51.028;13.716;2024-03-25T22:44:26;19.80;70.50
47773;DHT22;33534;51.028;13.716;2024-03-25T22:46:52;19.80;70.40
47773;DHT22;33534;51.028;13.716;2024-03-25T22:49:18;19.80;70.40
47773;DHT22;33534;51.028;13.716;2024-03-25T22:51:43;19.80;70.40
47773;DHT22;33534;51.028;13.716;2024-03-25T22:54:09;19.80;70.30
47773;DHT22;33534;51.028;13.716;2024-03-25T22:56:34;19.90;70.30
47773;DHT22;33534;51.028;13.716;2024-03-25T22:59:00;19.80;70.20
47773;DHT22;33534;51.028;13.716;2024-03-25T23:01:26;19.80;70.20
47773;DHT22;33534;51.028;13.716;2024-03-25T23:03:51;19.80;70.20
47773;DHT22;33534;51.028;13.716;2024-03-25T23:06:17;19.90;70.30
47773;DHT22;33534;51.028;13.716;2024-03-25T23:08:42;19.80;70.30
47773;DHT22;33534;51.028;13.716;2024-03-25T23:11:08;19.90;70.20
47773;DHT22;33534;51.028;13.716;2024-03-25T23:13:34;19.80;70.20
47773;DHT22;33534;51.028;13.716;2024-03-25T23:15:59;19.80;70.20
47773;DHT22;33534;51.028;13.716;2024-03-25T23:18:25;19.80;70.20
47773;DHT22;33534;51.028;13.716;2024-03-25T23:20:50;19.90;70.20
47773;DHT22;33534;51.028;13.716;2024-03-25T23:23:17;19.80;70.10
47773;DHT22;33534;51.028;13.716;2024-03-25T23:25:44;19.80;70.10
47773;DHT22;33534;51.028;13.716;2024-03-25T23:28:11;19.90;70.10
47773;DHT22;33534;51.028;13.716;2024-03-25T23:30:37;19.80;70.10
47773;DHT22;33534;51.028;13.716;2024-03-25T23:33:03;19.90;70.10